createdAt,value
2018-07-12T00:00:38.894Z,100107
2018-07-12T00:01:43.840Z,100099
2018-07-12T00:02:49.047Z,100119
2018-07-12T00:03:54.885Z,100104
2018-07-12T00:05:00.411Z,100104
2018-07-12T00:06:05.615Z,100101
2018-07-12T00:07:10.795Z,100096
2018-07-12T00:08:16.324Z,100101
2018-07-12T00:09:21.846Z,100101
2018-07-12T00:10:27.785Z,100093
2018-07-12T00:11:33.263Z,100096
2018-07-12T00:12:39.063Z,100087
2018-07-12T00:13:44.546Z,100096
2018-07-12T00:14:50.120Z,100087
2018-07-12T00:15:55.944Z,100090
2018-07-12T00:17:01.101Z,100090
2018-07-12T00:18:05.963Z,100084
2018-07-12T00:19:11.788Z,100081
2018-07-12T00:20:16.977Z,100075
2018-07-12T00:21:22.485Z,100090
2018-07-12T00:22:28.275Z,100078
2018-07-12T00:23:33.501Z,100065
2018-07-12T00:24:39.254Z,100068
2018-07-12T00:25:44.146Z,100070
2018-07-12T00:26:49.293Z,100078
2018-07-12T00:27:54.981Z,100075
2018-07-12T00:29:00.422Z,100081
2018-07-12T00:30:05.298Z,100084
2018-07-12T00:31:10.145Z,100070
2018-07-12T00:32:15.307Z,100070
2018-07-12T00:33:20.164Z,100081
2018-07-12T00:34:25.724Z,100078
2018-07-12T00:35:30.295Z,100078
2018-07-12T00:36:36.245Z,100078
2018-07-12T00:37:41.420Z,100078
2018-07-12T00:38:46.637Z,100075
2018-07-12T00:39:52.047Z,100078
2018-07-12T00:40:57.570Z,100070
2018-07-12T00:42:02.776Z,100070
2018-07-12T00:43:08.483Z,100070
2018-07-12T00:44:13.947Z,100070
2018-07-12T00:45:19.156Z,100078
2018-07-12T00:46:24.852Z,100081
2018-07-12T00:47:30.343Z,100090
2018-07-12T00:48:36.187Z,100084
2018-07-12T00:49:40.790Z,100084
2018-07-12T00:50:45.719Z,100087
2018-07-12T00:51:51.415Z,100087
2018-07-12T00:52:56.856Z,100090
2018-07-12T00:54:02.025Z,100093
2018-07-12T00:55:06.727Z,100090
2018-07-12T00:56:12.191Z,100084
2018-07-12T00:57:17.633Z,100084
2018-07-12T00:58:23.323Z,100087
2018-07-12T00:59:28.766Z,100084
2018-07-12T01:00:34.480Z,100087
2018-07-12T01:01:39.925Z,100093
2018-07-12T01:02:45.385Z,100096
2018-07-12T01:03:50.967Z,100099
2018-07-12T01:04:56.411Z,100084
2018-07-12T01:06:01.572Z,100090
2018-07-12T01:07:06.504Z,100096
2018-07-12T01:08:12.006Z,100093
2018-07-12T01:09:17.162Z,100093
2018-07-12T01:10:22.615Z,100093
2018-07-12T01:11:28.120Z,100087
2018-07-12T01:12:34.427Z,100084
2018-07-12T01:13:39.284Z,100090
2018-07-12T01:14:44.824Z,100078
2018-07-12T01:15:50.358Z,100096
2018-07-12T01:16:55.899Z,100078
2018-07-12T01:18:01.049Z,100099
2018-07-12T01:19:06.043Z,100087
2018-07-12T01:20:11.334Z,100090
2018-07-12T01:21:17.021Z,100090
2018-07-12T01:22:22.784Z,100096
2018-07-12T01:23:28.285Z,100090
2018-07-12T01:24:34.161Z,100099
2018-07-12T01:25:39.316Z,100099
2018-07-12T01:26:44.527Z,100090
2018-07-12T01:27:49.989Z,100101
2018-07-12T01:28:55.140Z,100101
2018-07-12T01:30:00.338Z,100104
2018-07-12T01:31:06.043Z,100104
2018-07-12T01:32:11.211Z,100096
2018-07-12T01:33:16.470Z,100104
2018-07-12T01:34:22.278Z,100101
2018-07-12T01:35:27.802Z,100110
2018-07-12T01:36:33.330Z,100110
2018-07-12T01:37:38.497Z,100110
2018-07-12T01:38:43.752Z,100107
2018-07-12T01:39:49.562Z,100101
2018-07-12T01:40:54.711Z,100093
2018-07-12T01:41:59.924Z,100110
2018-07-12T01:43:05.480Z,100104
2018-07-12T01:44:10.672Z,100104
2018-07-12T01:45:16.190Z,100104
2018-07-12T01:46:21.980Z,100104
2018-07-12T01:47:27.135Z,100104
2018-07-12T01:48:32.688Z,100113
2018-07-12T01:49:38.138Z,100110
2018-07-12T01:50:43.606Z,100116
2018-07-12T01:51:49.292Z,100099
2018-07-12T01:52:54.458Z,100101
2018-07-12T01:53:59.932Z,100113
2018-07-12T01:55:05.634Z,100116
2018-07-12T01:56:10.783Z,100110
2018-07-12T01:57:15.705Z,100110
2018-07-12T01:58:21.124Z,100107
2018-07-12T01:59:26.348Z,100110
2018-07-12T02:00:32.490Z,100110
2018-07-12T02:01:38.539Z,100107
2018-07-12T02:02:43.700Z,100104
2018-07-12T02:03:49.159Z,100119
2018-07-12T02:04:54.674Z,100110
2018-07-12T02:05:59.876Z,100090
2018-07-12T02:07:05.370Z,100087
2018-07-12T02:08:10.252Z,100087
2018-07-12T02:09:15.487Z,100090
2018-07-12T02:10:21.177Z,100093
2018-07-12T02:11:26.623Z,100096
2018-07-12T02:12:31.758Z,100093
2018-07-12T02:13:37.209Z,100099
2018-07-12T02:14:42.654Z,100093
2018-07-12T02:15:48.851Z,100099
2018-07-12T02:16:54.377Z,100093
2018-07-12T02:17:59.921Z,100084
2018-07-12T02:19:05.408Z,100087
2018-07-12T02:20:10.617Z,100087
2018-07-12T02:21:16.064Z,100087
2018-07-12T02:22:21.755Z,100081
2018-07-12T02:23:27.192Z,100090
2018-07-12T02:24:32.704Z,100087
2018-07-12T02:25:37.597Z,100090
2018-07-12T02:26:42.752Z,100096
2018-07-12T02:27:48.516Z,100087
2018-07-12T02:28:53.955Z,100087
2018-07-12T02:29:59.443Z,100087
2018-07-12T02:31:05.171Z,100081
2018-07-12T02:32:10.664Z,100081
2018-07-12T02:33:16.139Z,100087
2018-07-12T02:34:21.848Z,100087
2018-07-12T02:35:26.716Z,100099
2018-07-12T02:36:32.559Z,100084
2018-07-12T02:37:37.790Z,100093
2018-07-12T02:38:42.668Z,100087
2018-07-12T02:39:47.838Z,100084
2018-07-12T02:40:53.062Z,100087
2018-07-12T02:41:58.504Z,100087
2018-07-12T02:43:04.225Z,100081
2018-07-12T02:44:09.382Z,100075
2018-07-12T02:45:14.558Z,100081
2018-07-12T02:46:20.304Z,100087
2018-07-12T02:47:25.558Z,100078
2018-07-12T02:48:31.382Z,100070
2018-07-12T02:49:36.616Z,100081
2018-07-12T02:50:42.053Z,100081
2018-07-12T02:51:47.350Z,100081
2018-07-12T02:52:52.507Z,100087
2018-07-12T02:53:57.980Z,100090
2018-07-12T02:55:03.902Z,100081
2018-07-12T02:56:09.056Z,100075
2018-07-12T02:57:14.489Z,100084
2018-07-12T02:58:19.995Z,100075
2018-07-12T02:59:25.144Z,100090
2018-07-12T03:00:30.150Z,100084
2018-07-12T03:01:35.636Z,100078
2018-07-12T03:02:40.785Z,100096
2018-07-12T03:03:46.213Z,100093
2018-07-12T03:04:51.676Z,100090
2018-07-12T03:05:56.851Z,100087
2018-07-12T03:07:02.452Z,100090
2018-07-12T03:08:07.691Z,100099
2018-07-12T03:09:12.839Z,100090
2018-07-12T03:10:18.563Z,100102
2018-07-12T03:11:23.719Z,100087
2018-07-12T03:12:29.528Z,100096
2018-07-12T03:13:34.749Z,100099
2018-07-12T03:14:40.270Z,100102
2018-07-12T03:15:45.835Z,100107
2018-07-12T03:16:51.295Z,100110
2018-07-12T03:17:56.162Z,100099
2018-07-12T03:19:01.770Z,100099
2018-07-12T03:20:06.423Z,100102
2018-07-12T03:21:11.878Z,100093
2018-07-12T03:22:17.573Z,100099
2018-07-12T03:23:22.448Z,100087
2018-07-12T03:24:28.004Z,100102
2018-07-12T03:25:33.152Z,100096
2018-07-12T03:26:38.330Z,100101
2018-07-12T03:27:44.215Z,100096
2018-07-12T03:28:49.653Z,100110
2018-07-12T03:29:55.220Z,100099
2018-07-12T03:31:00.908Z,100099
2018-07-12T03:32:05.240Z,100093
2018-07-12T03:33:10.442Z,100090
2018-07-12T03:34:15.737Z,100101
2018-07-12T03:35:21.196Z,100099
2018-07-12T03:36:27.056Z,100116
2018-07-12T03:37:32.540Z,100110
2018-07-12T03:38:38.073Z,100113
2018-07-12T03:39:43.581Z,100104
2018-07-12T03:40:49.089Z,100110
2018-07-12T03:41:54.551Z,100116
2018-07-12T03:42:59.968Z,100122
2018-07-12T03:44:05.471Z,100116
2018-07-12T03:45:10.982Z,100113
2018-07-12T03:46:16.812Z,100107
2018-07-12T03:47:22.326Z,100119
2018-07-12T03:48:28.067Z,100116
2018-07-12T03:49:32.966Z,100113
2018-07-12T03:50:38.408Z,100116
2018-07-12T03:51:44.005Z,100122
2018-07-12T03:52:49.449Z,100119
2018-07-12T03:53:54.883Z,100122
2018-07-12T03:55:00.290Z,100122
2018-07-12T03:56:05.251Z,100128
2018-07-12T03:57:10.696Z,100122
2018-07-12T03:58:16.071Z,100110
2018-07-12T03:59:21.565Z,100128
2018-07-12T04:00:27.279Z,100119
2018-07-12T04:01:32.735Z,100125
2018-07-12T04:02:38.176Z,100113
2018-07-12T04:03:44.120Z,100113
2018-07-12T04:04:49.328Z,100113
2018-07-12T04:05:54.827Z,100107
2018-07-12T04:07:00.705Z,100107
2018-07-12T04:08:05.851Z,100116
2018-07-12T04:09:10.452Z,100104
2018-07-12T04:10:16.246Z,100110
2018-07-12T04:11:21.720Z,100119
2018-07-12T04:12:27.514Z,100125
2018-07-12T04:13:33.024Z,100122
2018-07-12T04:14:37.618Z,100110
2018-07-12T04:15:43.094Z,100119
2018-07-12T04:16:48.360Z,100116
2018-07-12T04:17:53.796Z,100116
2018-07-12T04:18:59.665Z,100122
2018-07-12T04:20:04.573Z,100113
2018-07-12T04:21:10.020Z,100122
2018-07-12T04:22:15.776Z,100119
2018-07-12T04:23:21.216Z,100110
2018-07-12T04:24:27.033Z,100113
2018-07-12T04:25:32.478Z,100119
2018-07-12T04:26:37.922Z,100113
2018-07-12T04:27:43.792Z,100125
2018-07-12T04:28:49.228Z,100125
2018-07-12T04:29:54.682Z,100113
2018-07-12T04:31:00.263Z,100122
2018-07-12T04:32:05.121Z,100113
2018-07-12T04:33:09.998Z,100119
2018-07-12T04:34:15.290Z,100122
2018-07-12T04:35:20.728Z,100130
2018-07-12T04:36:26.767Z,100130
2018-07-12T04:37:32.287Z,100127
2018-07-12T04:38:37.722Z,100127
2018-07-12T04:39:43.626Z,100130
2018-07-12T04:40:48.802Z,100127
2018-07-12T04:41:54.332Z,100133
2018-07-12T04:43:00.027Z,100142
2018-07-12T04:44:05.504Z,100136
2018-07-12T04:45:10.442Z,100124
2018-07-12T04:46:15.886Z,100127
2018-07-12T04:47:21.418Z,100124
2018-07-12T04:48:27.363Z,100130
2018-07-12T04:49:32.520Z,100139
2018-07-12T04:50:37.685Z,100130
2018-07-12T04:51:43.408Z,100136
2018-07-12T04:52:48.307Z,100142
2018-07-12T04:53:53.551Z,100136
2018-07-12T04:54:59.347Z,100136
2018-07-12T04:56:04.797Z,100145
2018-07-12T04:57:09.682Z,100136
2018-07-12T04:58:15.588Z,100147
2018-07-12T04:59:21.740Z,100145
2018-07-12T05:00:26.956Z,100136
2018-07-12T05:01:32.118Z,100136
2018-07-12T05:02:37.315Z,100145
2018-07-12T05:03:42.740Z,100142
2018-07-12T05:04:48.230Z,100145
2018-07-12T05:05:53.163Z,100147
2018-07-12T05:06:58.578Z,100136
2018-07-12T05:08:04.187Z,100133
2018-07-12T05:09:09.747Z,100142
2018-07-12T05:10:15.534Z,100130
2018-07-12T05:11:21.035Z,100130
2018-07-12T05:12:26.742Z,100139
2018-07-12T05:13:32.224Z,100136
2018-07-12T05:14:37.677Z,100133
2018-07-12T05:15:42.866Z,100136
2018-07-12T05:16:48.302Z,100139
2018-07-12T05:17:53.521Z,100136
2018-07-12T05:18:59.455Z,100130
2018-07-12T05:20:04.899Z,100130
2018-07-12T05:21:09.582Z,100145
2018-07-12T05:22:14.765Z,100139
2018-07-12T05:23:20.211Z,100136
2018-07-12T05:24:25.790Z,100136
2018-07-12T05:25:30.959Z,100136
2018-07-12T05:26:36.185Z,100133
2018-07-12T05:27:41.304Z,100127
2018-07-12T05:28:46.283Z,100136
2018-07-12T05:29:51.744Z,100139
2018-07-12T05:30:57.602Z,100133
2018-07-12T05:32:02.753Z,100145
2018-07-12T05:33:07.386Z,100145
2018-07-12T05:34:12.843Z,100133
2018-07-12T05:35:18.045Z,100142
2018-07-12T05:36:22.939Z,100142
2018-07-12T05:37:29.123Z,100149
2018-07-12T05:38:34.663Z,100142
2018-07-12T05:39:40.099Z,100147
2018-07-12T05:40:44.976Z,100139
2018-07-12T05:41:50.173Z,100142
2018-07-12T05:42:55.975Z,100142
2018-07-12T05:44:01.563Z,100139
2018-07-12T05:45:05.942Z,100149
2018-07-12T05:46:11.097Z,100147
2018-07-12T05:47:16.251Z,100158
2018-07-12T05:48:21.400Z,100149
2018-07-12T05:49:27.498Z,100155
2018-07-12T05:50:32.685Z,100149
2018-07-12T05:51:38.471Z,100155
2018-07-12T05:52:43.944Z,100158
2018-07-12T05:53:49.151Z,100152
2018-07-12T05:54:54.573Z,100158
2018-07-12T05:55:59.765Z,100170
2018-07-12T05:57:05.332Z,100158
2018-07-12T05:58:10.781Z,100155
2018-07-12T05:59:16.292Z,100167
2018-07-12T06:00:21.167Z,100170
2018-07-12T06:01:40.843Z,100161
2018-07-12T06:02:46.048Z,100172
2018-07-12T06:03:51.237Z,100170
2018-07-12T06:04:56.172Z,100164
2018-07-12T06:06:01.100Z,100172
2018-07-12T06:07:06.006Z,100175
2018-07-12T06:08:11.449Z,100172
2018-07-12T06:09:16.417Z,100170
2018-07-12T06:10:21.847Z,100167
2018-07-12T06:11:27.281Z,100175
2018-07-12T06:12:32.375Z,100167
2018-07-12T06:13:37.616Z,100164
2018-07-12T06:14:43.076Z,100175
2018-07-12T06:15:48.633Z,100178
2018-07-12T06:16:53.624Z,100175
2018-07-12T06:17:58.933Z,100187
2018-07-12T06:19:03.713Z,100187
2018-07-12T06:20:08.744Z,100193
2018-07-12T06:21:13.361Z,100187
2018-07-12T06:22:18.822Z,100193
2018-07-12T06:23:24.032Z,100184
2018-07-12T06:24:29.600Z,100187
2018-07-12T06:25:34.741Z,100199
2018-07-12T06:26:39.708Z,100187
2018-07-12T06:27:44.959Z,100207
2018-07-12T06:28:50.437Z,100193
2018-07-12T06:29:55.052Z,100193
2018-07-12T06:31:00.530Z,100196
2018-07-12T06:32:05.131Z,100187
2018-07-12T06:33:10.562Z,100193
2018-07-12T06:34:16.057Z,100196
2018-07-12T06:35:20.662Z,100184
2018-07-12T06:36:26.961Z,100190
2018-07-12T06:37:31.876Z,100187
2018-07-12T06:38:36.809Z,100181
2018-07-12T06:39:42.385Z,100193
2018-07-12T06:40:47.293Z,100181
2018-07-12T06:41:52.743Z,100187
2018-07-12T06:42:57.593Z,100190
2018-07-12T06:44:02.465Z,100193
2018-07-12T06:45:06.819Z,100199
2018-07-12T06:46:12.241Z,100193
2018-07-12T06:47:17.688Z,100193
2018-07-12T06:48:22.850Z,100196
2018-07-12T06:49:28.539Z,100190
2018-07-12T06:50:33.432Z,100202
2018-07-12T06:51:39.087Z,100204
2018-07-12T06:52:44.332Z,100190
2018-07-12T06:53:49.312Z,100199
2018-07-12T06:54:54.434Z,100196
2018-07-12T06:55:59.640Z,100210
2018-07-12T06:57:05.183Z,100207
2018-07-12T06:58:10.329Z,100204
2018-07-12T06:59:15.549Z,100213
2018-07-12T07:00:21.029Z,100202
2018-07-12T07:01:26.284Z,100210
2018-07-12T07:02:31.196Z,100222
2018-07-12T07:03:36.736Z,100216
2018-07-12T07:04:41.916Z,100207
2018-07-12T07:05:47.157Z,100216
2018-07-12T07:06:52.233Z,100213
2018-07-12T07:07:57.691Z,100207
2018-07-12T07:09:02.357Z,100210
2018-07-12T07:10:06.936Z,100207
2018-07-12T07:11:12.123Z,100213
2018-07-12T07:12:17.273Z,100213
2018-07-12T07:13:22.958Z,100219
2018-07-12T07:14:28.114Z,100216
2018-07-12T07:15:33.902Z,100210
2018-07-12T07:16:39.061Z,100216
2018-07-12T07:17:44.231Z,100213
2018-07-12T07:18:49.647Z,100213
2018-07-12T07:19:55.083Z,100225
2018-07-12T07:20:59.971Z,100210
2018-07-12T07:22:05.625Z,100213
2018-07-12T07:23:10.795Z,100225
2018-07-12T07:24:15.941Z,100213
2018-07-12T07:25:21.704Z,100213
2018-07-12T07:26:26.804Z,100213
2018-07-12T07:27:31.935Z,100219
2018-07-12T07:28:36.805Z,100213
2018-07-12T07:29:42.112Z,100216
2018-07-12T07:30:47.566Z,100213
2018-07-12T07:31:52.514Z,100222
2018-07-12T07:32:57.716Z,100216
2018-07-12T07:34:02.354Z,100216
2018-07-12T07:35:06.957Z,100222
2018-07-12T07:36:12.149Z,100225
2018-07-12T07:37:17.624Z,100222
2018-07-12T07:38:22.583Z,100219
2018-07-12T07:39:28.318Z,100213
2018-07-12T07:40:33.762Z,100222
2018-07-12T07:41:38.921Z,100225
2018-07-12T07:42:44.125Z,100222
2018-07-12T07:43:49.807Z,100219
2018-07-12T07:44:54.686Z,100219
2018-07-12T07:46:00.532Z,100222
2018-07-12T07:47:05.453Z,100231
2018-07-12T07:48:10.607Z,100222
2018-07-12T07:49:16.599Z,100228
2018-07-12T07:50:22.237Z,100234
2018-07-12T07:51:27.716Z,100222
2018-07-12T07:52:32.031Z,100231
2018-07-12T07:53:37.231Z,100234
2018-07-12T07:54:42.741Z,100245
2018-07-12T07:55:47.954Z,100228
2018-07-12T07:56:52.884Z,100237
2018-07-12T07:57:58.295Z,100245
2018-07-12T07:59:02.873Z,100248
2018-07-12T08:00:07.862Z,100237
2018-07-12T08:01:13.343Z,100237
2018-07-12T08:02:17.645Z,100240
2018-07-12T08:03:22.982Z,100248
2018-07-12T08:04:28.693Z,100246
2018-07-12T08:05:33.584Z,100246
2018-07-12T08:06:38.763Z,100248
2018-07-12T08:07:43.930Z,100243
2018-07-12T08:08:49.096Z,100251
2018-07-12T08:09:54.898Z,100251
2018-07-12T08:11:00.347Z,100246
2018-07-12T08:12:05.772Z,100251
2018-07-12T08:13:11.177Z,100248
2018-07-12T08:14:16.650Z,100243
2018-07-12T08:15:21.552Z,100248
2018-07-12T08:16:26.789Z,100237
2018-07-12T08:17:31.701Z,100251
2018-07-12T08:18:37.553Z,100237
2018-07-12T08:19:43.045Z,100251
2018-07-12T08:20:48.276Z,100248
2018-07-12T08:21:53.694Z,100240
2018-07-12T08:22:58.265Z,100240
2018-07-12T08:24:03.143Z,100251
2018-07-12T08:25:08.568Z,100254
2018-07-12T08:26:14.042Z,100231
2018-07-12T08:27:19.485Z,100240
2018-07-12T08:28:25.469Z,100251
2018-07-12T08:29:30.640Z,100240
2018-07-12T08:30:35.933Z,100243
2018-07-12T08:31:40.817Z,100248
2018-07-12T08:32:46.058Z,100240
2018-07-12T08:33:51.773Z,100243
2018-07-12T08:34:57.506Z,100246
2018-07-12T08:36:02.384Z,100243
2018-07-12T08:37:07.572Z,100240
2018-07-12T08:38:12.163Z,100234
2018-07-12T08:39:17.413Z,100231
2018-07-12T08:40:22.584Z,100237
2018-07-12T08:41:28.055Z,100234
2018-07-12T08:42:33.731Z,100237
2018-07-12T08:43:39.549Z,100231
2018-07-12T08:44:44.459Z,100240
2018-07-12T08:45:50.212Z,100234
2018-07-12T08:46:55.368Z,100243
2018-07-12T08:48:00.814Z,100240
2018-07-12T08:49:06.340Z,100246
2018-07-12T08:50:12.075Z,100240
2018-07-12T08:51:17.208Z,100240
2018-07-12T08:52:22.903Z,100234
2018-07-12T08:53:27.822Z,100243
2018-07-12T08:54:33.382Z,100243
2018-07-12T08:55:39.215Z,100234
2018-07-12T08:56:44.386Z,100251
2018-07-12T08:57:49.796Z,100240
2018-07-12T08:58:54.392Z,100248
2018-07-12T08:59:59.635Z,100240
2018-07-12T09:01:04.489Z,100243
2018-07-12T09:02:09.821Z,100246
2018-07-12T09:03:15.523Z,100231
2018-07-12T09:04:21.229Z,100243
2018-07-12T09:05:26.159Z,100237
2018-07-12T09:06:32.245Z,100231
2018-07-12T09:07:37.762Z,100243
2018-07-12T09:08:43.310Z,100240
2018-07-12T09:09:48.484Z,100234
2018-07-12T09:10:53.931Z,100237
2018-07-12T09:11:59.438Z,100231
2018-07-12T09:13:04.297Z,100240
2018-07-12T09:14:09.769Z,100246
2018-07-12T09:15:14.983Z,100246
2018-07-12T09:16:20.828Z,100240
2018-07-12T09:17:25.974Z,100240
2018-07-12T09:18:32.124Z,100246
2018-07-12T09:19:37.009Z,100231
2018-07-12T09:20:42.215Z,100243
2018-07-12T09:21:47.457Z,100234
2018-07-12T09:22:53.224Z,100246
2018-07-12T09:23:58.180Z,100251
2018-07-12T09:25:03.045Z,100240
2018-07-12T09:26:07.934Z,100225
2018-07-12T09:27:12.854Z,100240
2018-07-12T09:28:18.414Z,100240
2018-07-12T09:29:23.883Z,100243
2018-07-12T09:30:29.282Z,100237
2018-07-12T09:31:34.167Z,100240
2018-07-12T09:32:39.101Z,100234
2018-07-12T09:33:44.800Z,100243
2018-07-12T09:34:50.231Z,100243
2018-07-12T09:35:55.670Z,100248
2018-07-12T09:37:01.497Z,100243
2018-07-12T09:38:05.910Z,100243
2018-07-12T09:39:11.579Z,100237
2018-07-12T09:40:16.764Z,100237
2018-07-12T09:41:21.749Z,100231
2018-07-12T09:42:27.838Z,100254
2018-07-12T09:43:32.825Z,100237
2018-07-12T09:44:37.703Z,100243
2018-07-12T09:45:43.221Z,100243
2018-07-12T09:46:48.385Z,100231
2018-07-12T09:47:53.535Z,100243
2018-07-12T09:48:59.266Z,100254
2018-07-12T09:50:04.682Z,100240
2018-07-12T09:51:09.863Z,100237
2018-07-12T09:52:15.696Z,100243
2018-07-12T09:53:20.887Z,100237
2018-07-12T09:54:26.124Z,100251
2018-07-12T09:55:31.264Z,100248
2018-07-12T09:56:36.803Z,100246
2018-07-12T09:57:42.616Z,100251
2018-07-12T09:58:47.789Z,100240
2018-07-12T09:59:53.240Z,100251
2018-07-12T10:00:58.709Z,100243
2018-07-12T10:02:04.064Z,100243
2018-07-12T10:03:09.214Z,100251
2018-07-12T10:04:14.700Z,100251
2018-07-12T10:05:20.145Z,100240
2018-07-12T10:06:40.315Z,100234
2018-07-12T10:07:44.910Z,100246
2018-07-12T10:08:49.333Z,100251
2018-07-12T10:09:55.015Z,100251
2018-07-12T10:11:00.169Z,100240
2018-07-12T10:12:05.062Z,100248
2018-07-12T10:13:09.935Z,100237
2018-07-12T10:14:14.539Z,100237
2018-07-12T10:15:19.985Z,100246
2018-07-12T10:16:25.458Z,100254
2018-07-12T10:17:30.569Z,100248
2018-07-12T10:18:35.691Z,100243
2018-07-12T10:19:40.616Z,100246
2018-07-12T10:20:46.035Z,100257
2018-07-12T10:21:51.442Z,100248
2018-07-12T10:22:56.956Z,100240
2018-07-12T10:24:02.185Z,100251
2018-07-12T10:25:07.804Z,100260
2018-07-12T10:26:12.987Z,100251
2018-07-12T10:27:18.471Z,100254
2018-07-12T10:28:23.888Z,100251
2018-07-12T10:29:28.580Z,100254
2018-07-12T10:30:34.333Z,100254
2018-07-12T10:31:39.211Z,100237
2018-07-12T10:32:44.367Z,100248
2018-07-12T10:33:49.697Z,100254
2018-07-12T10:34:55.137Z,100245
2018-07-12T10:36:00.207Z,100240
2018-07-12T10:37:05.226Z,100245
2018-07-12T10:38:10.457Z,100234
2018-07-12T10:39:15.618Z,100242
2018-07-12T10:40:20.851Z,100242
2018-07-12T10:41:26.479Z,100234
2018-07-12T10:42:32.039Z,100237
2018-07-12T10:43:37.566Z,100234
2018-07-12T10:44:42.472Z,100231
2018-07-12T10:45:47.701Z,100234
2018-07-12T10:46:52.590Z,100239
2018-07-12T10:47:57.283Z,100237
2018-07-12T10:49:03.166Z,100242
2018-07-12T10:50:08.097Z,100239
2018-07-12T10:51:12.639Z,100234
2018-07-12T10:52:18.065Z,100234
2018-07-12T10:53:23.270Z,100237
2018-07-12T10:54:28.537Z,100234
2018-07-12T10:55:33.836Z,100239
2018-07-12T10:56:39.087Z,100248
2018-07-12T10:57:44.489Z,100231
2018-07-12T10:58:49.761Z,100231
2018-07-12T10:59:55.047Z,100237
2018-07-12T11:01:00.735Z,100228
2018-07-12T11:02:05.325Z,100219
2018-07-12T11:03:10.502Z,100225
2018-07-12T11:04:16.203Z,100225
2018-07-12T11:05:21.674Z,100222
2018-07-12T11:06:27.114Z,100222
2018-07-12T11:07:32.041Z,100222
2018-07-12T11:08:37.481Z,100225
2018-07-12T11:09:41.991Z,100210
2018-07-12T11:10:47.496Z,100216
2018-07-12T11:11:52.929Z,100219
2018-07-12T11:12:58.550Z,100219
2018-07-12T11:14:02.902Z,100207
2018-07-12T11:15:08.065Z,100210
2018-07-12T11:16:12.931Z,100213
2018-07-12T11:17:18.145Z,100213
2018-07-12T11:18:23.064Z,100219
2018-07-12T11:19:28.766Z,100213
2018-07-12T11:20:33.982Z,100219
2018-07-12T11:21:39.036Z,100202
2018-07-12T11:22:44.560Z,100205
2018-07-12T11:23:50.044Z,100199
2018-07-12T11:24:55.448Z,100207
2018-07-12T11:26:00.896Z,100207
2018-07-12T11:27:05.536Z,100205
2018-07-12T11:28:11.089Z,100207
2018-07-12T11:29:16.686Z,100207
2018-07-12T11:30:22.032Z,100210
2018-07-12T11:31:27.732Z,100210
2018-07-12T11:32:32.926Z,100207
2018-07-12T11:33:38.589Z,100196
2018-07-12T11:34:44.263Z,100219
2018-07-12T11:35:49.717Z,100205
2018-07-12T11:36:55.221Z,100205
2018-07-12T11:38:00.439Z,100210
2018-07-12T11:39:05.324Z,100202
2018-07-12T11:40:10.287Z,100199
2018-07-12T11:41:15.711Z,100216
2018-07-12T11:42:20.956Z,100207
2018-07-12T11:43:26.450Z,100199
2018-07-12T11:44:31.613Z,100207
2018-07-12T11:45:37.574Z,100207
2018-07-12T11:46:43.044Z,100202
2018-07-12T11:47:48.350Z,100204
2018-07-12T11:48:53.654Z,100199
2018-07-12T11:49:59.452Z,100199
2018-07-12T11:51:04.038Z,100196
2018-07-12T11:52:09.972Z,100205
2018-07-12T11:53:15.423Z,100193
2018-07-12T11:54:20.619Z,100199
2018-07-12T11:55:40.969Z,100193
2018-07-12T11:56:46.619Z,100187
2018-07-12T11:57:51.815Z,100184
2018-07-12T11:58:56.969Z,100190
2018-07-12T12:00:02.191Z,100181
2018-07-12T12:01:07.076Z,100190
2018-07-12T12:02:12.515Z,100190
2018-07-12T12:03:17.969Z,100181
2018-07-12T12:04:23.697Z,100190
2018-07-12T12:05:27.949Z,100181
2018-07-12T12:06:33.757Z,100184
2018-07-12T12:07:39.004Z,100193
2018-07-12T12:08:44.163Z,100184
2018-07-12T12:09:49.578Z,100178
2018-07-12T12:10:54.519Z,100187
2018-07-12T12:11:59.958Z,100187
2018-07-12T12:13:05.376Z,100187
2018-07-12T12:14:10.258Z,100184
2018-07-12T12:15:15.407Z,100181
2018-07-12T12:16:21.249Z,100170
2018-07-12T12:17:26.444Z,100187
2018-07-12T12:18:31.597Z,100193
2018-07-12T12:19:36.856Z,100184
2018-07-12T12:20:41.720Z,100184
2018-07-12T12:21:47.616Z,100178
2018-07-12T12:22:53.050Z,100184
2018-07-12T12:23:58.676Z,100178
2018-07-12T12:25:04.364Z,100184
2018-07-12T12:26:09.462Z,100178
2018-07-12T12:27:14.675Z,100181
2018-07-12T12:28:20.366Z,100175
2018-07-12T12:29:25.812Z,100181
2018-07-12T12:30:30.691Z,100181
2018-07-12T12:31:36.141Z,100184
2018-07-12T12:32:41.021Z,100196
2018-07-12T12:33:46.565Z,100184
2018-07-12T12:34:51.728Z,100178
2018-07-12T12:35:56.376Z,100181
2018-07-12T12:37:01.798Z,100181
2018-07-12T12:38:06.744Z,100187
2018-07-12T12:39:11.625Z,100190
2018-07-12T12:40:17.300Z,100187
2018-07-12T12:41:22.461Z,100184
2018-07-12T12:42:28.156Z,100190
2018-07-12T12:43:33.305Z,100190
2018-07-12T12:44:38.777Z,100190
2018-07-12T12:45:44.642Z,100184
2018-07-12T12:46:49.228Z,100187
2018-07-12T12:47:55.317Z,100190
2018-07-12T12:49:00.856Z,100184
2018-07-12T12:50:06.299Z,100187
2018-07-12T12:51:11.505Z,100187
2018-07-12T12:52:16.740Z,100184
2018-07-12T12:53:21.612Z,100190
2018-07-12T12:54:26.940Z,100184
2018-07-12T12:55:32.108Z,100187
2018-07-12T12:56:37.639Z,100184
2018-07-12T12:57:43.513Z,100190
2018-07-12T12:58:48.396Z,100172
2018-07-12T12:59:53.576Z,100181
2018-07-12T13:00:59.341Z,100193
2018-07-12T13:02:04.228Z,100187
2018-07-12T13:03:09.124Z,100187
2018-07-12T13:04:14.548Z,100196
2018-07-12T13:05:19.451Z,100184
2018-07-12T13:07:44.288Z,100184
2018-07-12T13:08:49.173Z,100178
2018-07-12T13:09:54.478Z,100181
2018-07-12T13:10:59.355Z,100172
2018-07-12T13:12:03.471Z,100173
2018-07-12T13:13:09.468Z,100164
2018-07-12T13:14:14.910Z,100161
2018-07-12T13:15:20.314Z,100175
2018-07-12T13:16:26.233Z,100158
2018-07-12T13:17:31.689Z,100167
2018-07-12T13:18:37.162Z,100178
2018-07-12T13:19:42.722Z,100164
2018-07-12T13:20:48.232Z,100158
2018-07-12T13:21:53.718Z,100167
2018-07-12T13:22:58.914Z,100173
2018-07-12T13:24:03.521Z,100167
2018-07-12T13:25:09.175Z,100178
2018-07-12T13:26:14.384Z,100173
2018-07-12T13:27:19.820Z,100181
2018-07-12T13:28:25.447Z,100173
2018-07-12T13:29:30.617Z,100176
2018-07-12T13:30:36.444Z,100167
2018-07-12T13:31:41.986Z,100173
2018-07-12T13:32:47.527Z,100164
2018-07-12T13:33:53.031Z,100179
2018-07-12T13:34:58.490Z,100184
2018-07-12T13:36:03.088Z,100184
2018-07-12T13:37:08.773Z,100193